Huvudsida
METAR-TAF:

METAR-TAF

Flygplatser :

Deauville, Frankrike

latitud: 49-21-55N, longitud: 000-09-16E, höjd: 146 m

Aktuellt väderrapport

Denna rapport gjordes för 54 minuter sedan, klockan 22:00 UTC
Vind 3 kt från syd/sydväst
Temperatur 10°C
Fuktighet 100%
Tryck 1012 hPa
Sikt: 0650 m
dimbankar

METAR: LFRG 222200Z AUTO 21003KT 5000 0650 R30/P2000 BCFG NSC 10/10 Q1012 NOSIG

Tid: 00:54 (22:54 UTC)

Väderprognos

Denna rapport gjordes för 8 timmar och 54 minuter sedan, klockan 14:00 UTC
Prognos gäller från 22 kl. 15 UTC till 22 kl. 24 UTC
Vind 7 kt från syd
Sikt 10 km eller mer
Spridda moln på en höjd av 2500 ft
Sannolikhet 40% :
Temporärt
från 22 kl. 15 UTC till 22 kl. 18 UTC
Sikt: 4000 m
Brutna moln på en höjd av 2000 ft, Högtornande cumulus.
regnskurar
Sannolikhet 30% :
Temporärt
från 22 kl. 21 UTC till 22 kl. 24 UTC
Sikt: 3000 m
fuktdis

TAF: LFRG 221400Z 2215/2224 19007KT 9999 SCT025 PROB40 TEMPO 2215/2218 4000 SHRA BKN020TCU PROB30 TEMPO 2221/2224 3000 BR

Aktuella väderrapporter och prognoser från 4000 flygplatser (METAR- och TAF-rapporter).

De tillgängliga stationerna syns som gula och röda prickar på kartan.

För musen över prickarna för att se namnen på stationerna.

Klicka sedan för att få väderrapporter och prognoser.

För att ändra kartan: Klicka på de gröna knapparna med ett svart kors på för att zooma in; den gröna knappen med ett streck på för att zooma ut; eller på de gröna pilarna för angränsande kartor.


METAR-TAF: